createdAt,value
2023-05-09T00:00:28.008Z,1108.4
2023-05-09T00:02:11.687Z,1099.1
2023-05-09T00:03:55.397Z,1094.9
2023-05-09T00:05:39.124Z,1091.1
2023-05-09T00:07:22.812Z,1089.4
2023-05-09T00:09:06.541Z,1091.2
2023-05-09T00:10:50.202Z,1088
2023-05-09T00:12:33.911Z,1090.4
2023-05-09T00:14:17.612Z,1102.2
2023-05-09T00:16:01.367Z,1105.1
2023-05-09T00:17:45.012Z,1104.4
2023-05-09T00:19:28.740Z,1098
2023-05-09T00:21:12.410Z,1095.1
2023-05-09T00:22:56.151Z,1097.6
2023-05-09T00:24:39.822Z,1099.3
2023-05-09T00:26:23.525Z,1097.2
2023-05-09T00:28:07.229Z,1088.1
2023-05-09T00:29:50.936Z,1084.6
2023-05-09T00:31:34.634Z,1084.4
2023-05-09T00:33:18.382Z,1080.8
2023-05-09T00:35:02.032Z,1080
2023-05-09T00:36:45.778Z,1079
2023-05-09T00:38:29.492Z,1079
2023-05-09T00:40:13.139Z,1074.4
2023-05-09T00:41:56.849Z,1068
2023-05-09T00:43:40.562Z,1062.5
2023-05-09T00:45:24.249Z,1062.9
2023-05-09T00:47:07.950Z,1058.2
2023-05-09T00:48:51.669Z,1056.2
2023-05-09T00:50:35.354Z,1062.2
2023-05-09T00:52:19.065Z,1058.7
2023-05-09T00:54:02.766Z,1051
2023-05-09T00:55:46.511Z,1046.8
2023-05-09T00:57:30.174Z,1041.9
2023-05-09T00:59:13.871Z,1041.1
2023-05-09T01:00:57.662Z,1045.5
2023-05-09T01:02:41.266Z,1044.3
2023-05-09T01:04:25.007Z,1038
2023-05-09T01:06:08.681Z,1034.8
2023-05-09T01:07:52.382Z,1028.1
2023-05-09T01:09:36.102Z,1026.7
2023-05-09T01:11:19.793Z,1022.6
2023-05-09T01:13:03.482Z,1018.4
2023-05-09T01:14:47.194Z,1022.2
2023-05-09T01:16:30.893Z,1021.4
2023-05-09T01:18:14.593Z,1020.7
2023-05-09T01:19:58.304Z,1024.1
2023-05-09T01:21:41.999Z,1021.9
2023-05-09T01:23:25.695Z,1022.7
2023-05-09T01:25:09.389Z,1021.9
2023-05-09T01:26:53.096Z,1021.4
2023-05-09T01:28:36.818Z,1016.5
2023-05-09T01:30:20.503Z,1014.8
2023-05-09T01:32:04.204Z,1016.9
2023-05-09T01:33:47.937Z,1017.1
2023-05-09T01:35:31.611Z,1016.2
2023-05-09T01:37:15.317Z,1015.4
2023-05-09T01:38:59.008Z,1011.8
2023-05-09T01:40:42.713Z,1012.2
2023-05-09T01:42:26.463Z,1008.7
2023-05-09T01:44:10.117Z,1005
2023-05-09T01:45:53.827Z,1003.8
2023-05-09T01:47:37.527Z,1004.3
2023-05-09T01:49:21.234Z,1006.6
2023-05-09T01:51:05.035Z,1006.8
2023-05-09T01:52:48.652Z,1006.8
2023-05-09T01:54:32.332Z,1006.7
2023-05-09T01:56:16.039Z,1006.3
2023-05-09T01:57:59.737Z,1000
2023-05-09T01:59:43.469Z,1003.7
2023-05-09T02:01:27.156Z,1000
2023-05-09T02:03:10.888Z,992.5
2023-05-09T02:04:54.550Z,995.3
2023-05-09T02:06:38.241Z,994.4
2023-05-09T02:08:21.946Z,991
2023-05-09T02:10:05.712Z,992.8
2023-05-09T02:11:49.342Z,994
2023-05-09T02:13:33.051Z,992.8
2023-05-09T02:15:16.743Z,990.6
2023-05-09T02:17:00.452Z,990.6
2023-05-09T02:18:44.174Z,992.2
2023-05-09T02:20:27.854Z,991.3
2023-05-09T02:22:11.584Z,988.4
2023-05-09T02:23:55.397Z,992.6
2023-05-09T02:25:38.952Z,1023.4
2023-05-09T02:27:22.670Z,1045.9
2023-05-09T02:29:06.358Z,1033.7
2023-05-09T02:30:50.172Z,1022.7
2023-05-09T02:32:33.765Z,1019.1
2023-05-09T02:34:17.509Z,1011.5
2023-05-09T02:36:01.188Z,1008.2
2023-05-09T02:37:44.887Z,1006.8
2023-05-09T02:39:28.567Z,1002.1
2023-05-09T02:41:12.272Z,998.5
2023-05-09T02:42:55.965Z,997.5
2023-05-09T02:44:39.689Z,996.1
2023-05-09T02:46:23.390Z,992.4
2023-05-09T02:48:07.068Z,989
2023-05-09T02:49:50.823Z,987.9
2023-05-09T02:51:34.476Z,987.4
2023-05-09T02:53:18.193Z,987.6
2023-05-09T02:55:01.880Z,983.2
2023-05-09T02:56:45.590Z,977.8
2023-05-09T02:58:29.357Z,976.6
2023-05-09T03:00:13.000Z,977.1
2023-05-09T03:01:56.707Z,975.4
2023-05-09T03:03:40.416Z,972.6
2023-05-09T03:05:24.094Z,970
2023-05-09T03:07:07.881Z,971.3
2023-05-09T03:08:51.504Z,975.4
2023-05-09T03:10:35.199Z,972.8
2023-05-09T03:12:18.898Z,970.7
2023-05-09T03:14:02.607Z,971.3
2023-05-09T03:15:46.299Z,973.7
2023-05-09T03:17:30.007Z,972.4
2023-05-09T03:19:13.742Z,969.4
2023-05-09T03:20:57.421Z,971
2023-05-09T03:22:41.135Z,973.1
2023-05-09T03:24:24.813Z,971
2023-05-09T03:26:08.516Z,965.7
2023-05-09T03:27:52.271Z,962.2
2023-05-09T03:31:19.726Z,964.2
2023-05-09T03:33:03.408Z,963.9
2023-05-09T03:34:47.038Z,964.2
2023-05-09T03:36:30.739Z,961.6
2023-05-09T03:38:14.441Z,965
2023-05-09T03:39:58.131Z,963.6
2023-05-09T03:41:41.832Z,962.3
2023-05-09T03:43:25.545Z,965.5
2023-05-09T03:45:09.309Z,965.9
2023-05-09T03:46:52.936Z,963.8
2023-05-09T03:48:36.638Z,962.6
2023-05-09T03:50:20.348Z,963
2023-05-09T03:53:47.748Z,962.6
2023-05-09T03:55:31.461Z,961.4
2023-05-09T03:57:15.149Z,960.5
2023-05-09T03:58:58.853Z,957.3
2023-05-09T04:00:42.553Z,959.2
2023-05-09T04:02:26.257Z,958.4
2023-05-09T04:04:09.965Z,958.9
2023-05-09T04:05:53.671Z,962.9
2023-05-09T04:07:37.410Z,965.6
2023-05-09T04:09:21.102Z,963.5
2023-05-09T04:11:04.781Z,962.2
2023-05-09T04:12:48.481Z,960.5
2023-05-09T04:14:32.188Z,953.5
2023-05-09T04:16:15.889Z,956.4
2023-05-09T04:19:43.291Z,960.1
2023-05-09T04:21:27.009Z,960.3
2023-05-09T04:23:10.690Z,960
2023-05-09T04:24:54.466Z,955.3
2023-05-09T04:26:38.111Z,954.5
2023-05-09T04:28:21.800Z,955.6
2023-05-09T04:30:05.503Z,952.9
2023-05-09T04:31:49.303Z,950.4
2023-05-09T04:35:16.644Z,951
2023-05-09T04:37:00.305Z,948.6
2023-05-09T04:38:44.006Z,950
2023-05-09T04:40:27.717Z,945.1
2023-05-09T04:42:11.415Z,946.5
2023-05-09T04:43:55.124Z,949.6
2023-05-09T04:45:38.854Z,951.5
2023-05-09T04:47:22.554Z,949.5
2023-05-09T04:49:06.242Z,950.4
2023-05-09T04:50:49.925Z,949.7
2023-05-09T04:52:33.719Z,944.2
2023-05-09T04:54:17.369Z,943.5
2023-05-09T04:57:44.741Z,943.4
2023-05-09T04:59:28.439Z,948.9
2023-05-09T05:01:12.142Z,948.5
2023-05-09T05:02:55.845Z,943.9
2023-05-09T05:04:39.532Z,939
2023-05-09T05:06:23.245Z,939.4
2023-05-09T05:08:06.966Z,940.3
2023-05-09T05:09:50.634Z,941.3
2023-05-09T05:11:34.344Z,940.4
2023-05-09T05:13:18.052Z,940.1
2023-05-09T05:15:01.748Z,936
2023-05-09T05:16:45.459Z,933.5
2023-05-09T05:18:29.158Z,933.9
2023-05-09T05:20:12.885Z,933.2
2023-05-09T05:21:56.576Z,928.7
2023-05-09T05:23:40.264Z,925.8
2023-05-09T05:25:23.956Z,924.3
2023-05-09T05:27:07.708Z,924.9
2023-05-09T05:28:51.365Z,924.7
2023-05-09T05:30:35.068Z,936.3
2023-05-09T05:32:18.777Z,989.5
2023-05-09T05:34:02.479Z,985
2023-05-09T05:35:46.173Z,969.7
2023-05-09T05:37:29.867Z,955.8
2023-05-09T05:39:13.569Z,941.6
2023-05-09T05:40:57.286Z,932.8
2023-05-09T05:42:41.064Z,927
2023-05-09T05:44:24.670Z,922.7
2023-05-09T05:46:08.456Z,920.9
2023-05-09T05:47:52.146Z,937.3
2023-05-09T05:49:35.874Z,1002.5
2023-05-09T05:51:19.509Z,1024.9
2023-05-09T05:53:03.224Z,1016
2023-05-09T05:54:46.981Z,1020.2
2023-05-09T05:56:30.674Z,1030
2023-05-09T05:58:14.297Z,1037.3
2023-05-09T05:59:58.105Z,1046.6
2023-05-09T06:01:41.693Z,1052.8
2023-05-09T06:03:25.441Z,1051.4
2023-05-09T06:05:09.167Z,1040
2023-05-09T06:06:52.806Z,1021.4
2023-05-09T06:08:36.544Z,1011.8
2023-05-09T06:10:20.222Z,1006.6
2023-05-09T06:12:03.909Z,1000.7
2023-05-09T06:13:47.618Z,997.5
2023-05-09T06:15:31.310Z,998.6
2023-05-09T06:17:15.006Z,1000.2
2023-05-09T06:18:58.729Z,1002.9
2023-05-09T06:20:42.435Z,1003.2
2023-05-09T06:22:26.120Z,1002.6
2023-05-09T06:24:09.867Z,1003.7
2023-05-09T06:25:53.530Z,1000.6
2023-05-09T06:27:37.233Z,1009.6
2023-05-09T06:29:20.947Z,1006.3
2023-05-09T06:31:04.626Z,1007.6
2023-05-09T06:32:48.332Z,1005.7
2023-05-09T06:34:32.044Z,1003
2023-05-09T06:36:15.752Z,1000.1
2023-05-09T06:37:59.436Z,1001.7
2023-05-09T06:39:43.147Z,1009.6
2023-05-09T06:41:26.862Z,1071
2023-05-09T06:43:10.582Z,1106.9
2023-05-09T06:44:54.252Z,1134.9
2023-05-09T06:46:37.962Z,1077.1
2023-05-09T06:48:21.655Z,1038.5
2023-05-09T06:50:05.383Z,1031.3
2023-05-09T06:51:49.058Z,1030.9
2023-05-09T06:53:32.824Z,1028.3
2023-05-09T06:55:16.543Z,1023.5
2023-05-09T06:57:00.172Z,1026.3
2023-05-09T06:58:43.867Z,1058.8
2023-05-09T07:00:27.584Z,1123.6
2023-05-09T07:02:11.308Z,1067.1
2023-05-09T07:03:54.990Z,1038
2023-05-09T07:05:38.681Z,1027.4
2023-05-09T07:07:22.408Z,1031.6
2023-05-09T07:09:06.092Z,1031.5
2023-05-09T07:10:49.795Z,1028.7
2023-05-09T07:12:33.491Z,1027.6
2023-05-09T07:14:17.198Z,1021.9
2023-05-09T07:16:00.891Z,1018.5
2023-05-09T07:17:44.608Z,1013.6
2023-05-09T07:19:28.300Z,1011.8
2023-05-09T07:21:12.006Z,1011.3
2023-05-09T07:22:55.711Z,1008
2023-05-09T07:24:39.410Z,1005
2023-05-09T07:26:23.107Z,1004
2023-05-09T07:28:06.815Z,1013.9
2023-05-09T07:29:50.512Z,1046.7
2023-05-09T07:31:34.217Z,1051.9
2023-05-09T07:33:17.916Z,1039.9
2023-05-09T07:35:01.620Z,1013.6
2023-05-09T07:36:45.322Z,1000.5
2023-05-09T07:38:29.020Z,1000.6
2023-05-09T07:40:12.726Z,1002.5
2023-05-09T07:41:56.434Z,997.8
2023-05-09T07:43:40.124Z,988.3
2023-05-09T07:45:23.832Z,987.9
2023-05-09T07:47:07.539Z,987.6
2023-05-09T07:48:51.229Z,986.7
2023-05-09T07:50:34.953Z,989.4
2023-05-09T07:52:18.629Z,988.4
2023-05-09T07:54:02.363Z,988.7
2023-05-09T07:55:46.050Z,987.8
2023-05-09T07:57:29.775Z,982.3
2023-05-09T07:59:13.426Z,976.4
2023-05-09T08:00:57.147Z,972.5
2023-05-09T08:02:40.838Z,970.2
2023-05-09T08:04:24.544Z,967.3
2023-05-09T08:06:08.241Z,963.5
2023-05-09T08:07:51.945Z,961.9
2023-05-09T08:09:35.654Z,964
2023-05-09T08:11:19.341Z,964
2023-05-09T08:13:03.048Z,962.7
2023-05-09T08:14:46.752Z,963.2
2023-05-09T08:16:30.452Z,961.7
2023-05-09T08:18:14.148Z,957.6
2023-05-09T08:19:57.852Z,955.2
2023-05-09T08:23:25.272Z,949.6
2023-05-09T08:25:08.981Z,943.9
2023-05-09T08:26:52.667Z,939.9
2023-05-09T08:28:36.429Z,935.5
2023-05-09T08:30:20.062Z,931.5
2023-05-09T08:32:03.768Z,929.3
2023-05-09T08:33:47.469Z,929.8
2023-05-09T08:35:31.168Z,931.6
2023-05-09T08:37:14.886Z,931.4
2023-05-09T08:38:58.573Z,930.8
2023-05-09T08:40:42.276Z,928.2
2023-05-09T08:44:09.731Z,920.9
2023-05-09T08:45:53.441Z,921.6
2023-05-09T08:47:37.089Z,923.9
2023-05-09T08:49:20.801Z,918.6
2023-05-09T08:51:04.520Z,916
2023-05-09T08:52:48.187Z,919.3
2023-05-09T08:54:31.909Z,923.1
2023-05-09T08:56:15.600Z,924.7
2023-05-09T08:57:59.393Z,929.4
2023-05-09T08:59:43.000Z,934.5
2023-05-09T09:01:26.763Z,934.1
2023-05-09T09:04:54.166Z,933.6
2023-05-09T09:06:37.806Z,934.8
2023-05-09T09:10:05.223Z,945.7
2023-05-09T09:11:49.035Z,946.6
2023-05-09T09:13:32.611Z,948.5
2023-05-09T09:15:16.310Z,950.2
2023-05-09T09:17:00.026Z,952.1
2023-05-09T09:18:43.717Z,955.1
2023-05-09T09:20:27.414Z,956.6
2023-05-09T09:22:11.164Z,958.7
2023-05-09T09:23:54.944Z,969.3
2023-05-09T09:25:38.549Z,986
2023-05-09T09:27:22.234Z,993.6
2023-05-09T09:29:05.921Z,996.1
2023-05-09T09:30:49.648Z,993.7
2023-05-09T09:32:33.340Z,994.8
2023-05-09T09:34:17.115Z,996.4
2023-05-09T09:36:00.735Z,994
2023-05-09T09:37:44.492Z,992
2023-05-09T09:39:28.170Z,986.3
2023-05-09T09:41:11.851Z,983.7
2023-05-09T09:44:39.279Z,978.5
2023-05-09T09:46:22.952Z,976.6
2023-05-09T09:48:06.652Z,976.1
2023-05-09T09:49:50.357Z,973.8
2023-05-09T09:51:34.122Z,966.6
2023-05-09T09:53:17.769Z,960.4
2023-05-09T09:55:01.461Z,954.7
2023-05-09T09:56:45.156Z,955.3
2023-05-09T09:58:28.865Z,955.3
2023-05-09T10:00:12.569Z,952.5
2023-05-09T10:03:39.996Z,953
2023-05-09T10:05:23.676Z,953.9
2023-05-09T10:07:07.438Z,954.9
2023-05-09T10:08:51.121Z,952
2023-05-09T10:10:34.835Z,947.8
2023-05-09T10:12:18.485Z,941.6
2023-05-09T10:14:02.196Z,935.4
2023-05-09T10:15:45.901Z,933
2023-05-09T10:17:29.586Z,936.9
2023-05-09T10:19:13.293Z,934.7
2023-05-09T10:20:57.155Z,932.1
2023-05-09T10:22:40.873Z,932.3
2023-05-09T10:24:24.400Z,927.3
2023-05-09T10:27:51.931Z,918.1
2023-05-09T10:29:35.509Z,909.4
2023-05-09T10:31:19.390Z,909.4
2023-05-09T10:33:03.023Z,915.2
2023-05-09T10:34:46.721Z,917.4
2023-05-09T10:36:30.493Z,917.2
2023-05-09T10:38:14.146Z,913.1
2023-05-09T10:39:57.779Z,913.7
2023-05-09T10:41:41.579Z,918.9
2023-05-09T10:43:25.132Z,918.1
2023-05-09T10:46:52.640Z,915.4
2023-05-09T10:48:36.318Z,909.7
2023-05-09T10:50:20.027Z,911.3
2023-05-09T10:55:31.101Z,894.4
2023-05-09T10:57:14.732Z,892.6
2023-05-09T10:59:05.529Z,895.1
2023-05-09T11:00:42.258Z,893.3
2023-05-09T11:02:25.851Z,886.3
2023-05-09T11:05:53.281Z,882.8
2023-05-09T11:09:27.646Z,876.9
2023-05-09T11:12:55.105Z,878.2
2023-05-09T11:14:31.740Z,870.5
2023-05-09T11:16:15.472Z,868.2
2023-05-09T11:18:06.254Z,866.2
2023-05-09T11:19:42.850Z,866.3
2023-05-09T11:21:26.572Z,866.4
2023-05-09T11:23:10.262Z,862
2023-05-09T11:26:51.675Z,858.9
2023-05-09T11:28:21.361Z,857.5
2023-05-09T11:30:05.251Z,857.7
2023-05-09T11:33:39.534Z,851.2
2023-05-09T11:35:16.368Z,846.9
2023-05-09T11:38:43.715Z,843
2023-05-09T11:42:25.031Z,845.2
2023-05-09T11:44:01.715Z,846.6
2023-05-09T11:45:38.508Z,841.1
2023-05-09T11:47:22.093Z,835.3
2023-05-09T11:49:12.867Z,832.2
2023-05-09T11:52:33.222Z,829.6
2023-05-09T11:54:30.936Z,831.1
2023-05-09T11:57:58.325Z,822.4
2023-05-09T11:59:28.026Z,819.8
2023-05-09T12:01:18.716Z,824.1
2023-05-09T12:04:53.170Z,822.6
2023-05-09T12:08:13.541Z,818.6
2023-05-09T12:15:08.444Z,816.9
2023-05-09T12:18:28.926Z,828.2
2023-05-09T12:20:12.453Z,826
2023-05-09T12:21:56.165Z,824.2
2023-05-09T12:23:39.855Z,820.3
2023-05-09T12:25:23.646Z,816.4
2023-05-09T12:27:14.259Z,815.6
2023-05-09T12:29:05.047Z,816.4
2023-05-09T12:34:02.078Z,817.5
2023-05-09T12:35:52.819Z,818.2
2023-05-09T12:37:43.478Z,819.7
2023-05-09T12:39:13.180Z,816.9
2023-05-09T12:40:56.890Z,815.8
2023-05-09T12:42:54.753Z,813
2023-05-09T12:44:38.387Z,810.3
2023-05-09T12:46:08.108Z,807.3
2023-05-09T12:47:51.836Z,808.6
2023-05-09T12:49:42.550Z,807.9
2023-05-09T12:51:33.103Z,806.5
2023-05-09T12:53:02.790Z,806
2023-05-09T12:54:46.704Z,807.4
2023-05-09T12:56:30.317Z,808.3
2023-05-09T12:58:13.897Z,805.5
2023-05-09T13:01:41.406Z,802.8
2023-05-09T13:05:08.755Z,809.7
2023-05-09T13:12:03.524Z,802
2023-05-09T13:13:54.211Z,811.9
2023-05-09T13:15:37.913Z,817.3
2023-05-09T13:17:21.618Z,819.8
2023-05-09T13:18:58.442Z,819.8
2023-05-09T13:20:42.018Z,823.1
2023-05-09T13:22:32.723Z,822.4
2023-05-09T13:24:09.648Z,824.5
2023-05-09T13:26:00.172Z,822.6
2023-05-09T13:27:36.845Z,823.6
2023-05-09T13:29:27.536Z,825.2
2023-05-09T13:31:04.235Z,827.2
2023-05-09T13:32:47.934Z,825.1
2023-05-09T13:34:31.636Z,826
2023-05-09T13:36:15.340Z,825.9
2023-05-09T13:37:59.050Z,826.2
2023-05-09T13:39:49.827Z,831.5
2023-05-09T13:41:26.523Z,830.7
2023-05-09T13:43:10.159Z,828.6
2023-05-09T13:46:37.569Z,832.7
2023-05-09T13:48:21.291Z,834.2
2023-05-09T13:50:04.949Z,837.3
2023-05-09T13:55:16.137Z,832.4
2023-05-09T13:56:59.763Z,830.9
2023-05-09T14:03:54.575Z,830.8
2023-05-09T14:05:38.321Z,830
2023-05-09T14:07:21.992Z,829.9
2023-05-09T14:09:05.681Z,829.9
2023-05-09T14:10:49.385Z,827.9
2023-05-09T14:12:33.089Z,829.2
2023-05-09T14:14:23.789Z,828.1
2023-05-09T14:16:07.496Z,824.8
2023-05-09T14:17:44.204Z,823.6
2023-05-09T14:21:11.689Z,823.2
2023-05-09T14:24:46.003Z,815.5
2023-05-09T14:26:22.738Z,813.8
2023-05-09T14:28:06.402Z,810.6
2023-05-09T14:40:12.319Z,802.2
2023-05-09T14:41:56.030Z,798.3
2023-05-09T14:45:23.428Z,800.1
2023-05-09T14:47:07.140Z,800.9
2023-05-09T14:48:50.838Z,800
2023-05-09T14:54:08.928Z,806.9
2023-05-09T14:55:45.638Z,807.1
2023-05-09T15:02:40.436Z,805.2
2023-05-09T15:07:51.532Z,802.8
2023-05-09T15:09:35.285Z,799.3
2023-05-09T15:11:18.937Z,795.3
2023-05-09T15:14:46.370Z,793
2023-05-09T15:18:20.751Z,796.3
2023-05-09T15:19:57.443Z,796.2
2023-05-09T15:21:41.175Z,793.8
2023-05-09T15:23:24.878Z,792.4
2023-05-09T15:25:08.545Z,791.1
2023-05-09T15:28:36.012Z,793.9
2023-05-09T15:30:26.669Z,792.2
2023-05-09T15:32:03.363Z,790
2023-05-09T15:33:54.102Z,786.9
2023-05-09T15:38:58.197Z,783.3
2023-05-09T15:40:48.866Z,786.2
2023-05-09T15:44:09.346Z,780
2023-05-09T15:45:52.969Z,777.1
2023-05-09T15:49:20.388Z,771.5
2023-05-09T15:51:04.081Z,767
2023-05-09T15:52:54.873Z,765
2023-05-09T15:57:58.887Z,765.2
2023-05-09T15:59:49.587Z,767.5
2023-05-09T16:01:26.288Z,769
2023-05-09T16:05:00.698Z,762.7
2023-05-09T16:06:37.396Z,759
2023-05-09T16:08:28.193Z,754.4
2023-05-09T16:10:04.809Z,748.4
2023-05-09T16:11:55.500Z,745.8
2023-05-09T16:13:32.220Z,749.4
2023-05-09T16:17:06.652Z,746.5
2023-05-09T16:18:50.314Z,747.3
2023-05-09T16:20:27.014Z,749.8
2023-05-09T16:24:01.423Z,743.8
2023-05-09T16:25:45.144Z,745.1
2023-05-09T16:27:21.837Z,744.4
2023-05-09T16:32:39.927Z,741
2023-05-09T16:34:16.625Z,742.4
2023-05-09T16:39:34.765Z,742.7
2023-05-09T16:41:11.458Z,741.7
2023-05-09T16:44:45.856Z,740
2023-05-09T16:46:29.540Z,742.2
2023-05-09T16:48:06.239Z,740.7
2023-05-09T16:53:24.364Z,742.7
2023-05-09T16:55:01.063Z,743.5
2023-05-09T17:00:19.148Z,740.2
2023-05-09T17:01:55.855Z,739.4
2023-05-09T17:05:30.254Z,734.2
2023-05-09T17:07:06.965Z,733.8
2023-05-09T17:08:57.685Z,737
2023-05-09T17:12:25.069Z,728.7
2023-05-09T17:15:52.487Z,732.4
2023-05-09T17:20:56.577Z,734.7
2023-05-09T17:22:47.269Z,736.3
2023-05-09T17:31:18.798Z,740.4
2023-05-09T17:33:09.481Z,742.7
2023-05-09T17:34:46.196Z,741.7
2023-05-09T17:36:29.893Z,747.4
2023-05-09T17:40:04.283Z,747.8
2023-05-09T17:41:41.040Z,747.6
2023-05-09T17:43:24.697Z,748.2
2023-05-09T17:45:08.429Z,748
2023-05-09T17:46:59.101Z,748.3
2023-05-09T17:48:35.845Z,746.2
2023-05-09T17:50:19.510Z,737.7
2023-05-09T17:52:03.211Z,738.6
2023-05-09T17:53:46.911Z,738.8
2023-05-09T17:55:30.619Z,738.8
2023-05-09T17:57:21.413Z,739.5
2023-05-09T17:59:05.022Z,740.8
2023-05-09T18:00:41.722Z,740.7
2023-05-09T18:02:25.422Z,741
2023-05-09T18:04:09.132Z,740.4
2023-05-09T18:05:52.839Z,738.7
2023-05-09T18:07:43.521Z,738.8
2023-05-09T18:09:20.219Z,739.9
2023-05-09T18:11:04.146Z,742.7
2023-05-09T18:12:47.733Z,749
2023-05-09T18:14:38.339Z,753.5
2023-05-09T18:16:15.112Z,753.1
2023-05-09T18:17:58.728Z,753.7
2023-05-09T18:19:42.448Z,757
2023-05-09T18:21:26.136Z,756.2
2023-05-09T18:26:37.253Z,754.7
2023-05-09T18:28:20.972Z,752.7
2023-05-09T18:31:48.375Z,748.5
2023-05-09T18:33:32.062Z,744.5
2023-05-09T18:35:15.796Z,734.1
2023-05-09T18:36:59.455Z,727.6
2023-05-09T18:38:43.173Z,719.8
2023-05-09T18:40:26.867Z,717.4
2023-05-09T18:42:10.617Z,717.6
2023-05-09T18:44:00.008Z,714.9
2023-05-09T18:45:38.035Z,716
2023-05-09T18:47:21.722Z,716.8
2023-05-09T18:49:05.370Z,724.5
2023-05-09T18:50:49.107Z,726.5
2023-05-09T18:52:32.785Z,731.6
2023-05-09T18:54:16.494Z,733.8
2023-05-09T18:56:00.183Z,734
2023-05-09T18:57:43.899Z,734
2023-05-09T18:59:27.606Z,733.6
2023-05-09T19:02:54.996Z,741.8
2023-05-09T19:04:38.913Z,744.4
2023-05-09T19:06:22.621Z,745.3
2023-05-09T19:08:06.236Z,747.1
2023-05-09T19:09:49.952Z,748.2
2023-05-09T19:11:33.653Z,743.9
2023-05-09T19:13:17.256Z,741.4
2023-05-09T19:15:00.973Z,736
2023-05-09T19:16:44.732Z,728.7
2023-05-09T19:18:28.340Z,722.8
2023-05-09T19:20:12.055Z,719.5
2023-05-09T19:21:55.741Z,718.9
2023-05-09T19:23:39.414Z,719.1
2023-05-09T19:25:23.206Z,711.7
2023-05-09T19:27:06.838Z,707.4
2023-05-09T19:28:50.553Z,705.4
2023-05-09T19:30:34.257Z,701.1
2023-05-09T19:32:17.948Z,693.1
2023-05-09T19:34:01.641Z,679.6
2023-05-09T19:35:45.428Z,679.2
2023-05-09T19:37:29.042Z,675.4
2023-05-09T19:39:12.791Z,670.6
2023-05-09T19:40:56.448Z,663.4
2023-05-09T19:42:40.151Z,664.4
2023-05-09T19:44:23.844Z,663.5
2023-05-09T19:46:07.733Z,663
2023-05-09T19:47:51.312Z,660.3
2023-05-09T19:49:35.012Z,658.2
2023-05-09T19:51:18.687Z,659.2
2023-05-09T19:53:02.521Z,654.4
2023-05-09T19:54:46.064Z,650.2
2023-05-09T19:56:29.773Z,649.8
2023-05-09T19:58:13.492Z,648.6
2023-05-09T19:59:57.191Z,646.7
2023-05-09T20:01:40.968Z,643.9
2023-05-09T20:03:24.581Z,639.6
2023-05-09T20:05:08.272Z,630.8
2023-05-09T20:06:51.971Z,626.7
2023-05-09T20:08:35.766Z,625.5
2023-05-09T20:10:19.383Z,625.2
2023-05-09T20:12:03.081Z,619.9
2023-05-09T20:13:46.785Z,619.2
2023-05-09T20:15:30.476Z,612.8
2023-05-09T20:17:14.193Z,612.2
2023-05-09T20:18:57.883Z,611.7
2023-05-09T20:20:41.591Z,608.8
2023-05-09T20:22:25.285Z,604.7
2023-05-09T20:24:08.985Z,600.1
2023-05-09T20:27:36.401Z,594.1
2023-05-09T20:29:20.086Z,589.1
2023-05-09T20:31:03.846Z,588.3
2023-05-09T20:32:47.522Z,584.9
2023-05-09T20:34:31.198Z,581.2
2023-05-09T20:36:14.903Z,580.5
2023-05-09T20:37:58.592Z,578.8
2023-05-09T20:39:42.295Z,634.8
2023-05-09T20:41:26.009Z,642.7
2023-05-09T20:43:09.701Z,647.2
2023-05-09T20:44:53.413Z,655.1
2023-05-09T20:46:37.105Z,660.8
2023-05-09T20:48:20.864Z,660.9
2023-05-09T20:50:04.523Z,659
2023-05-09T20:51:48.223Z,653.5
2023-05-09T20:53:31.936Z,652
2023-05-09T20:55:15.635Z,654
2023-05-09T20:56:59.491Z,653.1
2023-05-09T20:58:43.039Z,652
2023-05-09T21:00:26.737Z,660.7
2023-05-09T21:02:10.437Z,674.6
2023-05-09T21:03:54.149Z,687.6
2023-05-09T21:05:37.866Z,688.1
2023-05-09T21:07:21.565Z,684.2
2023-05-09T21:09:05.305Z,683.8
2023-05-09T21:10:48.955Z,680.9
2023-05-09T21:12:32.691Z,682.8
2023-05-09T21:14:16.349Z,685.7
2023-05-09T21:16:00.067Z,688.7
2023-05-09T21:17:43.762Z,695.2
2023-05-09T21:19:27.452Z,702.7
2023-05-09T21:21:11.218Z,707
2023-05-09T21:22:54.860Z,715.3
2023-05-09T21:24:38.566Z,721.3
2023-05-09T21:26:22.262Z,722.4
2023-05-09T21:28:05.961Z,721.1
2023-05-09T21:31:33.369Z,722.6
2023-05-09T21:33:17.068Z,718.4
2023-05-09T21:36:44.495Z,717.4
2023-05-09T21:38:28.180Z,713.4
2023-05-09T21:41:55.598Z,718.2
2023-05-09T21:43:39.357Z,719.5
2023-05-09T21:45:22.986Z,718
2023-05-09T21:47:06.766Z,718
2023-05-09T21:48:57.431Z,718.4
2023-05-09T21:50:34.089Z,719.5
2023-05-09T21:52:17.800Z,718.4
2023-05-09T21:54:01.651Z,715.9
2023-05-09T21:55:45.208Z,724.7
2023-05-09T21:57:28.907Z,790.4
2023-05-09T21:59:12.605Z,783.3
2023-05-09T22:00:56.346Z,781.8
2023-05-09T22:02:40.095Z,780.3
2023-05-09T22:04:23.722Z,772.8
2023-05-09T22:06:07.451Z,761.6
2023-05-09T22:07:51.163Z,756.8
2023-05-09T22:09:34.897Z,753.2
2023-05-09T22:11:18.553Z,745.2
2023-05-09T22:13:02.236Z,741.6
2023-05-09T22:14:46.036Z,744
2023-05-09T22:16:29.635Z,741.7
2023-05-09T22:18:13.382Z,749
2023-05-09T22:19:57.042Z,764.9
2023-05-09T22:21:40.739Z,767.1
2023-05-09T22:23:24.444Z,772.2
2023-05-09T22:25:08.150Z,764.5
2023-05-09T22:26:51.913Z,760.7
2023-05-09T22:28:35.538Z,755.2
2023-05-09T22:30:19.250Z,754
2023-05-09T22:32:02.943Z,752.4
2023-05-09T22:33:46.647Z,751.6
2023-05-09T22:35:30.354Z,750.8
2023-05-09T22:37:14.059Z,749
2023-05-09T22:40:41.456Z,747.3
2023-05-09T22:42:25.152Z,750.2
2023-05-09T22:44:08.878Z,751.1
2023-05-09T22:45:52.573Z,752.1
2023-05-09T22:47:36.256Z,753.9
2023-05-09T22:49:19.970Z,749.7
2023-05-09T22:51:03.670Z,751.4
2023-05-09T22:52:47.367Z,771.2
2023-05-09T22:54:31.117Z,807.5
2023-05-09T22:56:14.789Z,817.1
2023-05-09T22:57:58.492Z,810.6
2023-05-09T22:59:42.173Z,778.7
2023-05-09T23:03:09.581Z,767.9
2023-05-09T23:04:53.288Z,767.5
2023-05-09T23:06:36.989Z,764.5
2023-05-09T23:08:20.717Z,781.8
2023-05-09T23:10:04.390Z,816.8
2023-05-09T23:13:31.792Z,804.9
2023-05-09T23:15:22.503Z,803.4
2023-05-09T23:16:59.200Z,816.8
2023-05-09T23:18:42.894Z,813.4
2023-05-09T23:20:26.614Z,786.6
2023-05-09T23:22:10.294Z,782.4
2023-05-09T23:23:54.015Z,784.4
2023-05-09T23:25:37.713Z,787.3
2023-05-09T23:29:05.123Z,786.3
2023-05-09T23:30:55.818Z,789.3
2023-05-09T23:32:39.515Z,794.2
2023-05-09T23:34:16.219Z,802.5
2023-05-09T23:35:59.926Z,814.3
2023-05-09T23:37:43.616Z,817.2
2023-05-09T23:39:27.314Z,815.6
2023-05-09T23:41:18.035Z,811.7
2023-05-09T23:42:54.734Z,807.1
2023-05-09T23:44:38.423Z,804.8
2023-05-09T23:46:22.129Z,799.7
2023-05-09T23:48:05.825Z,797
2023-05-09T23:49:49.531Z,796.4
2023-05-09T23:51:33.258Z,799.6
2023-05-09T23:53:16.941Z,799.8
2023-05-09T23:55:00.637Z,801.5
2023-05-09T23:56:44.352Z,799.7
